Terminal Aerodrome Forecast
Issued by NWS

Home | Current Version | Previous Version | Text Only | Print | Product List | Glossary On
Versions: 1 2 3 4 5 6 7 8 9 10 11 12 13 14 15 16 17 18
000
FTUS46 KLOX 232337
TAFSBP
TAF
KSBP 232337Z 2400/2424 31012KT P6SM SKC
     FM240400 31007KT P6SM OVC008
     FM240900 VRB03KT P6SM OVC006
     FM241600 VRB03KT P6SM BKN010
     FM241800 31008KT P6SM SKC
     FM242000 31014KT P6SM SKC=

USA.gov is the U.S. government's official web portal to all federal, state and local government web resources and services.